createdAt,value
2023-12-26T00:00:37.732Z,94649.00
2023-12-26T00:01:37.776Z,94652.00
2023-12-26T00:02:37.857Z,94653.00
2023-12-26T00:03:37.988Z,94653.00
2023-12-26T00:04:37.940Z,94652.00
2023-12-26T00:05:38.147Z,94655.00
2023-12-26T00:06:38.155Z,94651.00
2023-12-26T00:07:38.099Z,94651.00
2023-12-26T00:08:38.141Z,94645.00
2023-12-26T00:09:38.174Z,94643.00
2023-12-26T00:10:38.220Z,94644.00
2023-12-26T00:11:38.325Z,94648.00
2023-12-26T00:12:38.349Z,94650.00
2023-12-26T00:13:38.395Z,94651.00
2023-12-26T00:14:38.474Z,94650.00
2023-12-26T00:15:38.497Z,94651.00
2023-12-26T00:16:38.542Z,94646.00
2023-12-26T00:17:38.794Z,94642.00
2023-12-26T00:18:38.748Z,94641.00
2023-12-26T00:19:38.760Z,94640.00
2023-12-26T00:20:38.789Z,94641.00
2023-12-26T00:21:38.839Z,94642.00
2023-12-26T00:22:38.844Z,94640.00
2023-12-26T00:23:38.956Z,94639.00
2023-12-26T00:24:38.945Z,94637.00
2023-12-26T00:25:39.018Z,94635.00
2023-12-26T00:26:40.719Z,94634.00
2023-12-26T00:27:39.126Z,94633.00
2023-12-26T00:28:39.191Z,94636.00
2023-12-26T00:29:39.267Z,94633.00
2023-12-26T00:30:39.335Z,94633.00
2023-12-26T00:31:39.338Z,94633.00
2023-12-26T00:32:39.496Z,94632.00
2023-12-26T00:33:39.564Z,94631.00
2023-12-26T00:34:39.617Z,94631.00
2023-12-26T00:35:39.583Z,94629.00
2023-12-26T00:36:39.610Z,94629.00
2023-12-26T00:37:39.625Z,94631.00
2023-12-26T00:38:39.732Z,94632.00
2023-12-26T00:39:39.757Z,94631.00
2023-12-26T00:40:39.790Z,94628.00
2023-12-26T00:41:39.868Z,94628.00
2023-12-26T00:42:39.987Z,94623.00
2023-12-26T00:43:39.957Z,94625.00
2023-12-26T00:44:40.054Z,94625.00
2023-12-26T00:45:40.054Z,94626.00
2023-12-26T00:46:40.112Z,94623.00
2023-12-26T00:47:40.390Z,94621.00
2023-12-26T00:48:40.299Z,94618.00
2023-12-26T00:49:40.340Z,94618.00
2023-12-26T00:50:40.341Z,94618.00
2023-12-26T00:51:40.361Z,94618.00
2023-12-26T00:52:40.419Z,94619.00
2023-12-26T00:53:40.509Z,94619.00
2023-12-26T00:54:40.568Z,94619.00
2023-12-26T00:55:40.584Z,94616.00
2023-12-26T00:56:40.707Z,94614.00
2023-12-26T00:57:40.691Z,94615.00
2023-12-26T00:58:40.751Z,94613.00
2023-12-26T00:59:40.828Z,94614.00
2023-12-26T01:00:40.907Z,94613.00
2023-12-26T01:01:40.907Z,94612.00
2023-12-26T01:02:40.972Z,94613.00
2023-12-26T01:03:41.069Z,94611.00
2023-12-26T01:04:41.132Z,94608.00
2023-12-26T01:05:41.132Z,94610.00
2023-12-26T01:06:41.174Z,94608.00
2023-12-26T01:07:41.220Z,94606.00
2023-12-26T01:08:41.311Z,94605.00
2023-12-26T01:09:41.311Z,94606.00
2023-12-26T01:10:41.352Z,94605.00
2023-12-26T01:11:41.509Z,94605.00
2023-12-26T01:12:41.445Z,94604.00
2023-12-26T01:13:41.541Z,94602.00
2023-12-26T01:14:41.609Z,94600.00
2023-12-26T01:15:41.612Z,94600.00
2023-12-26T01:16:41.691Z,94601.00
2023-12-26T01:17:41.853Z,94605.00
2023-12-26T01:18:41.909Z,94604.00
2023-12-26T01:19:41.832Z,94604.00
2023-12-26T01:20:41.927Z,94604.00
2023-12-26T01:21:41.970Z,94606.00
2023-12-26T01:22:41.990Z,94608.00
2023-12-26T01:23:42.095Z,94607.00
2023-12-26T01:24:42.104Z,94610.00
2023-12-26T01:25:42.170Z,94612.00
2023-12-26T01:26:42.263Z,94610.00
2023-12-26T01:27:42.269Z,94611.00
2023-12-26T01:28:42.330Z,94608.00
2023-12-26T01:29:42.413Z,94611.00
2023-12-26T01:30:42.472Z,94607.00
2023-12-26T01:31:42.494Z,94608.00
2023-12-26T01:32:42.614Z,94603.00
2023-12-26T01:33:42.709Z,94603.00
2023-12-26T01:34:42.721Z,94602.00
2023-12-26T01:35:42.763Z,94604.00
2023-12-26T01:36:42.735Z,94610.00
2023-12-26T01:37:42.807Z,94613.00
2023-12-26T01:38:42.937Z,94609.00
2023-12-26T01:39:42.902Z,94606.00
2023-12-26T01:40:42.969Z,94605.00
2023-12-26T01:41:43.019Z,94610.00
2023-12-26T01:42:43.153Z,94609.00
2023-12-26T01:43:43.120Z,94611.00
2023-12-26T01:44:43.239Z,94612.00
2023-12-26T01:45:43.236Z,94606.00
2023-12-26T01:46:43.341Z,94608.00
2023-12-26T01:47:43.447Z,94611.00
2023-12-26T01:48:43.543Z,94616.00
2023-12-26T01:49:43.528Z,94613.00
2023-12-26T01:50:43.607Z,94613.00
2023-12-26T01:51:43.821Z,94609.00
2023-12-26T01:52:43.653Z,94612.00
2023-12-26T01:53:43.722Z,94613.00
2023-12-26T01:54:43.742Z,94618.00
2023-12-26T01:55:43.836Z,94618.00
2023-12-26T01:56:43.870Z,94618.00
2023-12-26T01:57:43.909Z,94615.00
2023-12-26T01:58:43.997Z,94611.00
2023-12-26T01:59:44.042Z,94608.00
2023-12-26T02:00:44.118Z,94608.00
2023-12-26T02:01:44.125Z,94612.00
2023-12-26T02:02:44.226Z,94611.00
2023-12-26T02:03:44.283Z,94610.00
2023-12-26T02:04:44.284Z,94611.00
2023-12-26T02:05:44.384Z,94609.00
2023-12-26T02:06:44.380Z,94605.00
2023-12-26T02:07:44.434Z,94603.00
2023-12-26T02:08:44.562Z,94604.00
2023-12-26T02:09:44.557Z,94610.00
2023-12-26T02:10:44.612Z,94612.00
2023-12-26T02:11:44.728Z,94610.00
2023-12-26T02:12:44.708Z,94603.00
2023-12-26T02:13:44.771Z,94600.00
2023-12-26T02:14:44.861Z,94602.00
2023-12-26T02:15:44.884Z,94602.00
2023-12-26T02:16:44.922Z,94600.00
2023-12-26T02:17:45.102Z,94599.00
2023-12-26T02:18:45.158Z,94597.00
2023-12-26T02:19:45.155Z,94600.00
2023-12-26T02:20:45.200Z,94599.00
2023-12-26T02:21:45.194Z,94598.00
2023-12-26T02:22:45.250Z,94592.00
2023-12-26T02:23:45.342Z,94590.00
2023-12-26T02:24:45.375Z,94586.00
2023-12-26T02:25:45.407Z,94589.00
2023-12-26T02:26:45.495Z,94589.00
2023-12-26T02:27:45.528Z,94591.00
2023-12-26T02:28:45.602Z,94589.00
2023-12-26T02:29:45.707Z,94587.00
2023-12-26T02:30:45.773Z,94583.00
2023-12-26T02:31:45.771Z,94583.00
2023-12-26T02:32:45.947Z,94582.00
2023-12-26T02:33:46.037Z,94584.00
2023-12-26T02:34:46.034Z,94580.00
2023-12-26T02:35:46.085Z,94581.00
2023-12-26T02:36:46.069Z,94583.00
2023-12-26T02:37:46.143Z,94580.00
2023-12-26T02:38:46.274Z,94576.00
2023-12-26T02:39:46.286Z,94571.00
2023-12-26T02:40:46.315Z,94574.00
2023-12-26T02:41:46.469Z,94576.00
2023-12-26T02:42:46.455Z,94575.00
2023-12-26T02:43:46.524Z,94575.00
2023-12-26T02:44:46.612Z,94577.00
2023-12-26T02:45:46.658Z,94577.00
2023-12-26T02:46:46.716Z,94576.00
2023-12-26T02:47:46.861Z,94570.00
2023-12-26T02:48:47.227Z,94572.00
2023-12-26T02:49:46.960Z,94572.00
2023-12-26T02:50:47.035Z,94574.00
2023-12-26T02:51:47.056Z,94575.00
2023-12-26T02:52:47.129Z,94576.00
2023-12-26T02:53:47.183Z,94573.00
2023-12-26T02:54:47.222Z,94570.00
2023-12-26T02:55:47.287Z,94568.00
2023-12-26T02:56:47.383Z,94568.00
2023-12-26T02:57:47.404Z,94570.00
2023-12-26T02:58:47.461Z,94574.00
2023-12-26T02:59:47.564Z,94574.00
2023-12-26T03:00:47.582Z,94576.00
2023-12-26T03:01:47.616Z,94574.00
2023-12-26T03:02:47.800Z,94578.00
2023-12-26T03:03:47.946Z,94573.00
2023-12-26T03:04:47.790Z,94573.00
2023-12-26T03:05:47.879Z,94572.00
2023-12-26T03:06:47.934Z,94572.00
2023-12-26T03:07:47.971Z,94570.00
2023-12-26T03:08:48.062Z,94568.00
2023-12-26T03:09:48.083Z,94575.00
2023-12-26T03:10:48.143Z,94576.00
2023-12-26T03:11:48.266Z,94571.00
2023-12-26T03:12:48.266Z,94566.00
2023-12-26T03:13:48.315Z,94564.00
2023-12-26T03:14:48.386Z,94566.00
2023-12-26T03:15:48.418Z,94569.00
2023-12-26T03:16:48.473Z,94571.00
2023-12-26T03:17:48.633Z,94572.00
2023-12-26T03:18:48.681Z,94572.00
2023-12-26T03:19:48.665Z,94571.00
2023-12-26T03:20:48.697Z,94565.00
2023-12-26T03:21:48.766Z,94564.00
2023-12-26T03:22:48.844Z,94561.00
2023-12-26T03:23:48.916Z,94562.00
2023-12-26T03:24:48.953Z,94566.00
2023-12-26T03:25:49.002Z,94567.00
2023-12-26T03:26:49.060Z,94562.00
2023-12-26T03:27:49.147Z,94560.00
2023-12-26T03:28:49.153Z,94565.00
2023-12-26T03:29:49.243Z,94567.00
2023-12-26T03:30:49.413Z,94566.00
2023-12-26T03:31:49.315Z,94561.00
2023-12-26T03:32:49.544Z,94558.00
2023-12-26T03:33:49.506Z,94561.00
2023-12-26T03:34:49.535Z,94559.00
2023-12-26T03:35:49.597Z,94560.00
2023-12-26T03:36:49.659Z,94557.00
2023-12-26T03:37:49.707Z,94557.00
2023-12-26T03:38:49.777Z,94555.00
2023-12-26T03:39:49.825Z,94558.00
2023-12-26T03:40:49.900Z,94562.00
2023-12-26T03:41:50.232Z,94565.00
2023-12-26T03:42:50.036Z,94562.00
2023-12-26T03:43:50.096Z,94558.00
2023-12-26T03:44:50.187Z,94552.00
2023-12-26T03:45:50.245Z,94550.00
2023-12-26T03:46:50.261Z,94554.00
2023-12-26T03:47:50.367Z,94559.00
2023-12-26T03:48:50.510Z,94554.00
2023-12-26T03:49:50.470Z,94554.00
2023-12-26T03:50:50.542Z,94558.00
2023-12-26T03:51:50.561Z,94557.00
2023-12-26T03:52:50.632Z,94549.00
2023-12-26T03:53:50.708Z,94552.00
2023-12-26T03:54:50.738Z,94558.00
2023-12-26T03:55:50.805Z,94555.00
2023-12-26T03:56:50.891Z,94550.00
2023-12-26T03:57:50.890Z,94549.00
2023-12-26T03:58:50.989Z,94549.00
2023-12-26T03:59:51.033Z,94552.00
2023-12-26T04:00:51.138Z,94555.00
2023-12-26T04:01:51.136Z,94555.00
2023-12-26T04:02:51.312Z,94553.00
2023-12-26T04:03:51.454Z,94551.00
2023-12-26T04:04:51.379Z,94549.00
2023-12-26T04:05:51.488Z,94550.00
2023-12-26T04:06:51.476Z,94550.00
2023-12-26T04:07:51.526Z,94556.00
2023-12-26T04:08:51.642Z,94561.00
2023-12-26T04:09:51.641Z,94560.00
2023-12-26T04:10:51.724Z,94554.00
2023-12-26T04:11:51.786Z,94557.00
2023-12-26T04:12:51.882Z,94557.00
2023-12-26T04:13:51.921Z,94557.00
2023-12-26T04:14:52.008Z,94560.00
2023-12-26T04:15:52.049Z,94559.00
2023-12-26T04:16:52.123Z,94559.00
2023-12-26T04:17:52.261Z,94558.00
2023-12-26T04:18:52.382Z,94556.00
2023-12-26T04:19:52.318Z,94556.00
2023-12-26T04:20:52.404Z,94555.00
2023-12-26T04:21:52.439Z,94555.00
2023-12-26T04:22:52.518Z,94554.00
2023-12-26T04:23:52.592Z,94558.00
2023-12-26T04:24:52.657Z,94559.00
2023-12-26T04:25:52.718Z,94555.00
2023-12-26T04:26:52.796Z,94557.00
2023-12-26T04:27:52.823Z,94556.00
2023-12-26T04:28:52.891Z,94561.00
2023-12-26T04:29:52.994Z,94558.00
2023-12-26T04:30:53.039Z,94559.00
2023-12-26T04:31:53.088Z,94564.00
2023-12-26T04:32:53.334Z,94567.00
2023-12-26T04:33:53.414Z,94562.00
2023-12-26T04:34:53.290Z,94560.00
2023-12-26T04:35:53.344Z,94559.00
2023-12-26T04:36:53.373Z,94557.00
2023-12-26T04:37:53.458Z,94558.00
2023-12-26T04:38:53.575Z,94561.00
2023-12-26T04:39:53.580Z,94559.00
2023-12-26T04:40:53.640Z,94556.00
2023-12-26T04:41:53.708Z,94559.00
2023-12-26T04:42:53.993Z,94560.00
2023-12-26T04:43:53.783Z,94567.00
2023-12-26T04:44:53.924Z,94566.00
2023-12-26T04:45:53.916Z,94562.00
2023-12-26T04:46:53.941Z,94559.00
2023-12-26T04:47:54.059Z,94561.00
2023-12-26T04:49:01.530Z,94557.00
2023-12-26T04:50:01.521Z,94558.00
2023-12-26T04:51:01.387Z,94560.00
2023-12-26T04:52:01.375Z,94558.00
2023-12-26T04:53:01.368Z,94557.00
2023-12-26T04:54:01.447Z,94564.00
2023-12-26T04:55:01.374Z,94568.00
2023-12-26T04:56:01.399Z,94571.00
2023-12-26T04:57:01.449Z,94563.00
2023-12-26T04:58:01.420Z,94557.00
2023-12-26T04:59:01.409Z,94555.00
2023-12-26T05:00:01.500Z,94560.00
2023-12-26T05:01:01.458Z,94566.00
2023-12-26T05:02:01.413Z,94571.00
2023-12-26T05:03:01.769Z,94571.00
2023-12-26T05:04:01.449Z,94570.00
2023-12-26T05:05:01.418Z,94568.00
2023-12-26T05:06:01.492Z,94569.00
2023-12-26T05:07:01.483Z,94572.00
2023-12-26T05:08:01.421Z,94571.00
2023-12-26T05:09:01.514Z,94573.00
2023-12-26T05:10:01.447Z,94572.00
2023-12-26T05:11:01.433Z,94567.00
2023-12-26T05:12:01.446Z,94565.00
2023-12-26T05:13:01.415Z,94567.00
2023-12-26T05:14:01.498Z,94565.00
2023-12-26T05:15:01.600Z,94567.00
2023-12-26T05:16:01.432Z,94571.00
2023-12-26T05:17:01.418Z,94575.00
2023-12-26T05:18:01.651Z,94577.00
2023-12-26T05:19:01.615Z,94579.00
2023-12-26T05:20:11.049Z,94581.00
2023-12-26T05:21:02.642Z,94579.00
2023-12-26T05:22:01.578Z,94581.00
2023-12-26T05:23:01.611Z,94577.00
2023-12-26T05:24:01.583Z,94575.00
2023-12-26T05:25:01.593Z,94578.00
2023-12-26T05:26:07.855Z,94587.00
2023-12-26T05:27:02.630Z,94586.00
2023-12-26T05:28:01.587Z,94587.00
2023-12-26T05:29:01.609Z,94590.00
2023-12-26T05:30:01.594Z,94589.00
2023-12-26T05:31:01.624Z,94589.00
2023-12-26T05:32:01.619Z,94591.00
2023-12-26T05:33:02.010Z,94587.00
2023-12-26T05:34:01.666Z,94583.00
2023-12-26T05:35:01.673Z,94590.00
2023-12-26T05:36:01.761Z,94592.00
2023-12-26T05:37:01.812Z,94589.00
2023-12-26T05:38:01.843Z,94591.00
2023-12-26T05:39:01.953Z,94595.00
2023-12-26T05:40:01.966Z,94596.00
2023-12-26T05:41:02.034Z,94596.00
2023-12-26T05:42:02.149Z,94596.00
2023-12-26T05:43:02.447Z,94593.00
2023-12-26T05:44:02.205Z,94592.00
2023-12-26T05:45:02.359Z,94594.00
2023-12-26T05:46:02.350Z,94596.00
2023-12-26T05:47:02.408Z,94598.00
2023-12-26T05:48:02.630Z,94595.00
2023-12-26T05:49:02.689Z,94592.00
2023-12-26T05:50:02.813Z,94594.00
2023-12-26T05:51:02.743Z,94597.00
2023-12-26T05:52:02.719Z,94596.00
2023-12-26T05:53:02.777Z,94592.00
2023-12-26T05:54:02.859Z,94596.00
2023-12-26T05:55:02.911Z,94596.00
2023-12-26T05:56:02.988Z,94599.00
2023-12-26T05:57:04.298Z,94600.00
2023-12-26T05:58:03.079Z,94596.00
2023-12-26T05:59:03.142Z,94596.00
2023-12-26T06:00:03.244Z,94594.00
2023-12-26T06:01:03.296Z,94597.00
2023-12-26T06:02:03.335Z,94599.00
2023-12-26T06:03:03.399Z,94603.00
2023-12-26T06:04:03.479Z,94603.00
2023-12-26T06:05:03.513Z,94605.00
2023-12-26T06:06:03.620Z,94606.00
2023-12-26T06:07:03.642Z,94604.00
2023-12-26T06:08:03.711Z,94608.00
2023-12-26T06:09:03.839Z,94610.00
2023-12-26T06:10:03.850Z,94608.00
2023-12-26T06:11:03.923Z,94607.00
2023-12-26T06:12:03.987Z,94606.00
2023-12-26T06:13:04.039Z,94608.00
2023-12-26T06:14:04.125Z,94611.00
2023-12-26T06:15:04.176Z,94611.00
2023-12-26T06:16:04.228Z,94608.00
2023-12-26T06:17:04.295Z,94608.00
2023-12-26T06:18:04.439Z,94610.00
2023-12-26T06:19:04.530Z,94607.00
2023-12-26T06:20:04.647Z,94608.00
2023-12-26T06:21:04.610Z,94608.00
2023-12-26T06:22:04.586Z,94607.00
2023-12-26T06:23:04.655Z,94609.00
2023-12-26T06:24:04.762Z,94610.00
2023-12-26T06:25:04.813Z,94613.00
2023-12-26T06:26:07.964Z,94612.00
2023-12-26T06:27:04.912Z,94612.00
2023-12-26T06:28:04.907Z,94610.00
2023-12-26T06:29:04.884Z,94611.00
2023-12-26T06:30:05.010Z,94611.00
2023-12-26T06:31:04.991Z,94607.00
2023-12-26T06:32:04.881Z,94612.00
2023-12-26T06:33:05.066Z,94617.00
2023-12-26T06:34:05.061Z,94618.00
2023-12-26T06:35:06.100Z,94621.00
2023-12-26T06:36:04.933Z,94620.00
2023-12-26T06:37:04.900Z,94615.00
2023-12-26T06:38:04.883Z,94617.00
2023-12-26T06:39:04.996Z,94618.00
2023-12-26T06:40:04.885Z,94618.00
2023-12-26T06:41:04.945Z,94621.00
2023-12-26T06:42:05.079Z,94625.00
2023-12-26T06:43:05.082Z,94629.00
2023-12-26T06:44:05.163Z,94628.00
2023-12-26T06:45:05.237Z,94630.00
2023-12-26T06:46:05.287Z,94635.00
2023-12-26T06:47:05.331Z,94640.00
2023-12-26T06:48:05.739Z,94636.00
2023-12-26T06:49:05.586Z,94636.00
2023-12-26T06:50:06.532Z,94636.00
2023-12-26T06:51:05.630Z,94639.00
2023-12-26T06:52:05.688Z,94640.00
2023-12-26T06:53:05.772Z,94639.00
2023-12-26T06:54:05.851Z,94638.00
2023-12-26T06:55:05.866Z,94644.00
2023-12-26T06:56:05.952Z,94646.00
2023-12-26T06:57:06.096Z,94650.00
2023-12-26T06:58:06.084Z,94650.00
2023-12-26T06:59:06.156Z,94650.00
2023-12-26T07:00:06.278Z,94652.00
2023-12-26T07:01:06.340Z,94653.00
2023-12-26T07:02:06.357Z,94647.00
2023-12-26T07:03:06.530Z,94649.00
2023-12-26T07:04:06.579Z,94650.00
2023-12-26T07:05:06.580Z,94654.00
2023-12-26T07:06:06.721Z,94653.00
2023-12-26T07:07:06.712Z,94649.00
2023-12-26T07:08:06.773Z,94653.00
2023-12-26T07:09:06.916Z,94655.00
2023-12-26T07:10:06.937Z,94658.00
2023-12-26T07:11:06.999Z,94659.00
2023-12-26T07:12:07.109Z,94665.00
2023-12-26T07:13:07.150Z,94666.00
2023-12-26T07:14:07.224Z,94662.00
2023-12-26T07:15:07.339Z,94658.00
2023-12-26T07:16:07.371Z,94661.00
2023-12-26T07:17:07.432Z,94663.00
2023-12-26T07:18:07.727Z,94663.00
2023-12-26T07:19:07.721Z,94663.00
2023-12-26T07:20:07.695Z,94665.00
2023-12-26T07:21:07.768Z,94671.00
2023-12-26T07:22:07.764Z,94676.00
2023-12-26T07:23:07.845Z,94676.00
2023-12-26T07:24:07.958Z,94676.00
2023-12-26T07:25:07.990Z,94680.00
2023-12-26T07:26:08.050Z,94682.00
2023-12-26T07:27:08.147Z,94683.00
2023-12-26T07:28:08.205Z,94686.00
2023-12-26T07:29:08.305Z,94688.00
2023-12-26T07:30:08.424Z,94691.00
2023-12-26T07:31:08.413Z,94694.00
2023-12-26T07:32:08.492Z,94698.00
2023-12-26T07:33:08.683Z,94700.00
2023-12-26T07:34:08.724Z,94699.00
2023-12-26T07:35:08.708Z,94704.00
2023-12-26T07:36:08.853Z,94707.00
2023-12-26T07:37:08.839Z,94710.00
2023-12-26T07:38:08.907Z,94711.00
2023-12-26T07:39:09.001Z,94710.00
2023-12-26T07:40:09.058Z,94711.00
2023-12-26T07:41:09.117Z,94711.00
2023-12-26T07:42:09.302Z,94714.00
2023-12-26T07:43:09.267Z,94715.00
2023-12-26T07:44:09.354Z,94719.00
2023-12-26T07:45:09.460Z,94718.00
2023-12-26T07:46:09.474Z,94718.00
2023-12-26T07:47:09.555Z,94722.00
2023-12-26T07:48:09.748Z,94725.00
2023-12-26T07:49:09.843Z,94727.00
2023-12-26T07:50:10.091Z,94728.00
2023-12-26T07:51:09.886Z,94726.00
2023-12-26T07:52:09.890Z,94727.00
2023-12-26T07:53:09.998Z,94729.00
2023-12-26T07:54:10.065Z,94728.00
2023-12-26T07:55:10.111Z,94731.00
2023-12-26T07:56:10.176Z,94732.00
2023-12-26T07:57:10.241Z,94733.00
2023-12-26T07:58:10.326Z,94736.00
2023-12-26T07:59:10.389Z,94742.00
2023-12-26T08:00:10.489Z,94747.00
2023-12-26T08:01:10.536Z,94748.00
2023-12-26T08:02:10.598Z,94751.00
2023-12-26T08:03:10.734Z,94750.00
2023-12-26T08:04:10.871Z,94751.00
2023-12-26T08:05:10.810Z,94752.00
2023-12-26T08:06:11.010Z,94753.00
2023-12-26T08:07:10.948Z,94754.00
2023-12-26T08:08:11.015Z,94755.00
2023-12-26T08:09:11.151Z,94756.00
2023-12-26T08:10:11.168Z,94751.00
2023-12-26T08:11:11.224Z,94745.00
2023-12-26T08:12:11.349Z,94747.00
2023-12-26T08:13:11.372Z,94750.00
2023-12-26T08:14:11.438Z,94750.00
2023-12-26T08:15:11.550Z,94751.00
2023-12-26T08:16:11.595Z,94746.00
2023-12-26T08:17:11.649Z,94748.00
2023-12-26T08:18:11.776Z,94750.00
2023-12-26T08:19:11.913Z,94750.00
2023-12-26T08:20:11.835Z,94749.00
2023-12-26T08:21:11.922Z,94749.00
2023-12-26T08:22:11.991Z,94750.00
2023-12-26T08:23:12.064Z,94751.00
2023-12-26T08:24:12.171Z,94752.00
2023-12-26T08:25:12.222Z,94751.00
2023-12-26T08:26:12.303Z,94752.00
2023-12-26T08:27:12.394Z,94753.00
2023-12-26T08:28:12.427Z,94754.00
2023-12-26T08:29:12.502Z,94755.00
2023-12-26T08:30:12.701Z,94758.00
2023-12-26T08:31:12.701Z,94757.00
2023-12-26T08:32:12.703Z,94759.00
2023-12-26T08:33:12.818Z,94757.00
2023-12-26T08:34:12.974Z,94755.00
2023-12-26T08:35:12.928Z,94755.00
2023-12-26T08:36:13.114Z,94756.00
2023-12-26T08:37:13.037Z,94760.00
2023-12-26T08:38:13.110Z,94761.00
2023-12-26T08:39:13.228Z,94760.00
2023-12-26T08:40:13.247Z,94757.00
2023-12-26T08:41:13.289Z,94756.00
2023-12-26T08:42:13.376Z,94758.00
2023-12-26T08:43:13.418Z,94762.00
2023-12-26T08:44:13.496Z,94760.00
2023-12-26T08:45:13.612Z,94762.00
2023-12-26T08:46:13.620Z,94760.00
2023-12-26T08:47:13.676Z,94757.00
2023-12-26T08:48:13.914Z,94758.00
2023-12-26T08:49:13.933Z,94759.00
2023-12-26T08:50:13.897Z,94760.00
2023-12-26T08:51:14.022Z,94763.00
2023-12-26T08:52:14.037Z,94767.00
2023-12-26T08:53:14.121Z,94768.00
2023-12-26T08:54:14.232Z,94768.00
2023-12-26T08:55:14.258Z,94769.00
2023-12-26T08:56:14.325Z,94768.00
2023-12-26T08:57:14.481Z,94766.00
2023-12-26T08:58:14.468Z,94769.00
2023-12-26T08:59:14.527Z,94772.00
2023-12-26T09:00:14.776Z,94771.00
2023-12-26T09:01:14.701Z,94775.00
2023-12-26T09:02:14.736Z,94778.00
2023-12-26T09:03:15.210Z,94782.00
2023-12-26T09:04:14.932Z,94782.00
2023-12-26T09:05:14.961Z,94783.00
2023-12-26T09:06:15.156Z,94781.00
2023-12-26T09:07:15.084Z,94778.00
2023-12-26T09:08:15.149Z,94781.00
2023-12-26T09:09:15.266Z,94784.00
2023-12-26T09:10:15.274Z,94785.00
2023-12-26T09:11:15.361Z,94785.00
2023-12-26T09:12:15.517Z,94779.00
2023-12-26T09:13:15.498Z,94777.00
2023-12-26T09:14:15.572Z,94778.00
2023-12-26T09:15:15.796Z,94782.00
2023-12-26T09:16:15.689Z,94784.00
2023-12-26T09:17:15.735Z,94783.00
2023-12-26T09:18:15.891Z,94783.00
2023-12-26T09:19:15.959Z,94783.00
2023-12-26T09:20:15.923Z,94782.00
2023-12-26T09:21:16.085Z,94780.00
2023-12-26T09:22:16.024Z,94784.00
2023-12-26T09:23:16.076Z,94785.00
2023-12-26T09:24:16.168Z,94787.00
2023-12-26T09:25:16.209Z,94784.00
2023-12-26T09:26:16.266Z,94783.00
2023-12-26T09:27:16.386Z,94785.00
2023-12-26T09:28:16.404Z,94789.00
2023-12-26T09:29:16.447Z,94791.00
2023-12-26T09:30:16.634Z,94793.00
2023-12-26T09:31:16.607Z,94788.00
2023-12-26T09:32:16.628Z,94790.00
2023-12-26T09:33:16.763Z,94792.00
2023-12-26T09:34:16.842Z,94792.00
2023-12-26T09:35:16.816Z,94795.00
2023-12-26T09:36:16.937Z,94797.00
2023-12-26T09:37:16.924Z,94796.00
2023-12-26T09:38:17.010Z,94798.00
2023-12-26T09:39:17.106Z,94801.00
2023-12-26T09:40:17.115Z,94800.00
2023-12-26T09:41:17.191Z,94800.00
2023-12-26T09:42:17.223Z,94804.00
2023-12-26T09:43:17.278Z,94810.00
2023-12-26T09:44:17.348Z,94814.00
2023-12-26T09:45:17.457Z,94813.00
2023-12-26T09:46:17.476Z,94806.00
2023-12-26T09:47:17.548Z,94805.00
2023-12-26T09:48:17.751Z,94812.00
2023-12-26T09:49:17.834Z,94818.00
2023-12-26T09:50:17.952Z,94821.00
2023-12-26T09:51:17.852Z,94818.00
2023-12-26T09:52:17.833Z,94819.00
2023-12-26T09:53:17.898Z,94821.00
2023-12-26T09:54:18.118Z,94824.00
2023-12-26T09:55:18.011Z,94822.00
2023-12-26T09:56:18.078Z,94824.00
2023-12-26T09:57:18.170Z,94826.00
2023-12-26T09:58:18.207Z,94827.00
2023-12-26T09:59:18.255Z,94830.00
2023-12-26T10:00:18.367Z,94827.00
2023-12-26T10:01:18.402Z,94825.00
2023-12-26T10:02:18.448Z,94827.00
2023-12-26T10:03:18.583Z,94828.00
2023-12-26T10:04:18.580Z,94829.00
2023-12-26T10:05:18.641Z,94835.00
2023-12-26T10:06:18.749Z,94832.00
2023-12-26T10:07:18.767Z,94829.00
2023-12-26T10:08:18.841Z,94829.00
2023-12-26T10:09:18.950Z,94832.00
2023-12-26T10:10:18.968Z,94827.00
2023-12-26T10:11:19.009Z,94823.00
2023-12-26T10:12:19.087Z,94823.00
2023-12-26T10:13:19.073Z,94829.00
2023-12-26T10:14:19.088Z,94826.00
2023-12-26T10:15:19.266Z,94824.00
2023-12-26T10:16:19.181Z,94827.00
2023-12-26T10:17:19.270Z,94826.00
2023-12-26T10:18:19.290Z,94822.00
2023-12-26T10:19:19.338Z,94824.00
2023-12-26T10:20:19.298Z,94824.00
2023-12-26T10:21:19.463Z,94826.00
2023-12-26T10:22:19.362Z,94824.00
2023-12-26T10:23:19.382Z,94823.00
2023-12-26T10:24:19.436Z,94817.00
2023-12-26T10:25:19.408Z,94817.00
2023-12-26T10:26:19.418Z,94818.00
2023-12-26T10:27:19.487Z,94821.00
2023-12-26T10:28:19.475Z,94823.00
2023-12-26T10:29:19.477Z,94822.00
2023-12-26T10:30:19.584Z,94824.00
2023-12-26T10:31:19.587Z,94826.00
2023-12-26T10:32:19.536Z,94826.00
2023-12-26T10:33:19.622Z,94826.00
2023-12-26T10:34:19.891Z,94825.00
2023-12-26T10:35:19.695Z,94823.00
2023-12-26T10:36:19.831Z,94823.00
2023-12-26T10:37:19.807Z,94820.00
2023-12-26T10:38:19.853Z,94819.00
2023-12-26T10:39:20.085Z,94819.00
2023-12-26T10:40:19.939Z,94816.00
2023-12-26T10:41:19.911Z,94813.00
2023-12-26T10:42:19.992Z,94812.00
2023-12-26T10:43:19.948Z,94811.00
2023-12-26T10:44:20.030Z,94810.00
2023-12-26T10:45:20.059Z,94809.00
2023-12-26T10:46:20.642Z,94804.00
2023-12-26T10:47:20.026Z,94807.00
2023-12-26T10:48:20.160Z,94809.00
2023-12-26T10:49:20.206Z,94812.00
2023-12-26T10:50:20.140Z,94812.00
2023-12-26T10:51:20.269Z,94810.00
2023-12-26T10:52:20.201Z,94811.00
2023-12-26T10:53:20.181Z,94814.00
2023-12-26T10:54:20.297Z,94810.00
2023-12-26T10:55:20.254Z,94808.00
2023-12-26T10:56:20.284Z,94811.00
2023-12-26T10:57:20.383Z,94811.00
2023-12-26T10:58:20.372Z,94810.00
2023-12-26T10:59:20.389Z,94808.00
2023-12-26T11:00:20.480Z,94810.00
2023-12-26T11:01:20.549Z,94810.00
2023-12-26T11:02:20.533Z,94810.00
2023-12-26T11:03:20.669Z,94809.00
2023-12-26T11:04:20.706Z,94808.00
2023-12-26T11:05:20.794Z,94809.00
2023-12-26T11:06:21.211Z,94806.00
2023-12-26T11:07:20.806Z,94805.00
2023-12-26T11:08:20.865Z,94804.00
2023-12-26T11:09:20.968Z,94801.00
2023-12-26T11:10:21.025Z,94801.00
2023-12-26T11:11:21.098Z,94798.00
2023-12-26T11:12:21.196Z,94794.00
2023-12-26T11:13:21.207Z,94795.00
2023-12-26T11:14:21.257Z,94794.00
2023-12-26T11:15:21.494Z,94796.00
2023-12-26T11:16:21.305Z,94801.00
2023-12-26T11:17:21.346Z,94801.00
2023-12-26T11:18:21.446Z,94804.00
2023-12-26T11:19:21.443Z,94802.00
2023-12-26T11:20:21.335Z,94796.00
2023-12-26T11:21:21.397Z,94795.00
2023-12-26T11:22:21.360Z,94798.00
2023-12-26T11:23:21.356Z,94801.00
2023-12-26T11:24:21.507Z,94800.00
2023-12-26T11:25:21.409Z,94796.00
2023-12-26T11:26:21.402Z,94797.00
2023-12-26T11:27:21.498Z,94800.00
2023-12-26T11:28:21.586Z,94801.00
2023-12-26T11:29:21.452Z,94804.00
2023-12-26T11:30:21.569Z,94801.00
2023-12-26T11:31:21.534Z,94795.00
2023-12-26T11:32:21.480Z,94794.00
2023-12-26T11:33:21.621Z,94791.00
2023-12-26T11:34:21.670Z,94792.00
2023-12-26T11:35:21.541Z,94790.00
2023-12-26T11:36:21.682Z,94785.00
2023-12-26T11:37:21.570Z,94783.00
2023-12-26T11:38:21.593Z,94783.00
2023-12-26T11:39:21.731Z,94786.00
2023-12-26T11:40:21.604Z,94786.00
2023-12-26T11:41:21.623Z,94784.00
2023-12-26T11:42:21.706Z,94782.00
2023-12-26T11:43:21.658Z,94782.00
2023-12-26T11:44:21.713Z,94778.00
2023-12-26T11:45:21.814Z,94775.00